Time;durP1;ratioP1;P1;durP2;ratioP2;P2;SDS_P1;SDS_P2;PMS_P1;PMS_P2;Temp;Humidity;BMP_temperature;BMP_pressure;BME280_temperature;BME280_humidity;BME280_pressure;Samples;Min_cycle;Max_cycle;Signal;HPM_P1;HPM_P2
2022/05/30 00:00:20;;;;;;;13.88;1.95;;;7.00;99.90;;;;;;5034128;28;20052;-85
2022/05/30 00:02:47;;;;;;;10.02;1.65;;;6.60;99.90;;;;;;5034765;28;20044;-84
2022/05/30 00:05:14;;;;;;;9.70;1.60;;;7.20;99.90;;;;;;5049771;28;20047;-85
2022/05/30 00:07:40;;;;;;;6.07;1.20;;;7.40;99.90;;;;;;5034628;28;20044;-85
2022/05/30 00:10:08;;;;;;;6.43;1.27;;;6.50;99.90;;;;;;5049955;28;20047;-85
2022/05/30 00:12:34;;;;;;;8.50;1.55;;;6.40;99.90;;;;;;5033863;28;20041;-85
2022/05/30 00:15:00;;;;;;;10.38;1.52;;;7.20;99.90;;;;;;5050760;28;20047;-85
2022/05/30 00:17:25;;;;;;;10.23;1.67;;;6.50;99.90;;;;;;5050867;28;20044;-85
2022/05/30 00:19:51;;;;;;;10.27;1.70;;;6.30;99.90;;;;;;5033140;28;20040;-85
2022/05/30 00:22:18;;;;;;;7.43;1.30;;;7.00;99.90;;;;;;5033415;28;20052;-85
2022/05/30 00:24:44;;;;;;;7.20;1.95;;;6.60;99.90;;;;;;5051212;28;20043;-85
2022/05/30 00:27:11;;;;;;;8.82;2.20;;;6.90;99.90;;;;;;5032722;28;20193;-85
2022/05/30 00:29:37;;;;;;;8.85;1.63;;;7.20;99.90;;;;;;5033986;28;20457;-85
2022/05/30 00:32:05;;;;;;;6.35;1.67;;;6.40;99.90;;;;;;5033323;28;20734;-85
2022/05/30 00:34:31;;;;;;;10.98;2.42;;;6.30;99.90;;;;;;5049367;28;20036;-85
2022/05/30 00:36:57;;;;;;;13.57;2.60;;;6.40;99.90;;;;;;5050943;28;20125;-85
2022/05/30 00:39:22;;;;;;;8.88;2.40;;;6.50;99.90;;;;;;5049271;28;20045;-85
2022/05/30 00:41:48;;;;;;;9.75;2.00;;;6.90;99.90;;;;;;5049872;28;20510;-85
2022/05/30 00:44:14;;;;;;;8.25;1.92;;;6.70;99.90;;;;;;5049357;28;20144;-85
2022/05/30 00:46:39;;;;;;;6.53;1.65;;;6.90;99.90;;;;;;5032959;28;20072;-85
2022/05/30 00:49:10;;;;;;;8.05;1.80;;;7.60;99.90;;;;;;5048746;28;20147;-85
2022/05/30 00:51:41;;;;;;;8.55;1.50;;;7.70;99.90;;;;;;5033479;28;20049;-85
2022/05/30 00:54:11;;;;;;;8.88;1.63;;;7.80;99.90;;;;;;5032106;28;20483;-85
2022/05/30 00:56:40;;;;;;;8.98;1.88;;;7.00;99.90;;;;;;5033753;28;20036;-85
2022/05/30 00:59:06;;;;;;;12.38;1.70;;;6.90;99.90;;;;;;5032375;28;20403;-85
2022/05/30 01:01:34;;;;;;;9.30;1.60;;;7.10;99.90;;;;;;5049549;28;20041;-85
2022/05/30 01:06:49;;;;;;;10.68;1.45;;;7.20;99.90;;;;;;5050055;28;20044;-85
2022/05/30 01:09:20;;;;;;;7.22;1.70;;;7.50;99.90;;;;;;5032868;28;20036;-86
2022/05/30 01:11:48;;;;;;;8.27;1.63;;;7.50;99.90;;;;;;5033690;28;20049;-89
2022/05/30 01:14:14;;;;;;;8.65;1.60;;;7.40;99.90;;;;;;5033477;28;20083;-90
2022/05/30 01:16:40;;;;;;;8.25;1.40;;;7.90;99.90;;;;;;5033936;28;20122;-90
2022/05/30 01:19:16;;;;;;;6.30;1.55;;;7.80;99.90;;;;;;5033735;28;20041;-90
2022/05/30 01:22:01;;;;;;;14.60;2.13;;;8.00;99.90;;;;;;5033655;28;20045;-88
2022/05/30 01:24:44;;;;;;;9.90;1.70;;;7.70;99.90;;;;;;5033434;28;20032;-88
2022/05/30 01:27:17;;;;;;;10.55;1.75;;;7.70;99.90;;;;;;5032913;28;20048;-88
2022/05/30 01:29:52;;;;;;;4.22;1.30;;;8.00;99.90;;;;;;5032564;28;20468;-87
2022/05/30 01:32:19;;;;;;;6.40;1.50;;;8.10;99.90;;;;;;5032989;28;20070;-88
2022/05/30 01:34:44;;;;;;;13.00;1.75;;;8.40;99.90;;;;;;5031918;28;20040;-88
2022/05/30 01:37:10;;;;;;;11.88;2.08;;;7.70;99.90;;;;;;5032081;28;20058;-87
2022/05/30 01:39:36;;;;;;;6.13;2.35;;;7.90;99.90;;;;;;5033026;28;20060;-87
2022/05/30 01:42:02;;;;;;;5.30;1.48;;;7.70;99.90;;;;;;5032329;28;20466;-87
2022/05/30 01:44:27;;;;;;;7.75;1.73;;;7.60;99.90;;;;;;5032721;28;20044;-87
2022/05/30 01:46:53;;;;;;;7.22;1.40;;;8.00;99.90;;;;;;5032558;28;20131;-87
2022/05/30 01:49:19;;;;;;;8.93;1.40;;;7.90;99.90;;;;;;5047857;28;20076;-86
2022/05/30 01:51:44;;;;;;;7.47;2.10;;;7.50;99.90;;;;;;5048354;28;20040;-87
2022/05/30 01:54:10;;;;;;;8.85;1.55;;;7.40;99.90;;;;;;5031512;28;20052;-86
2022/05/30 01:56:36;;;;;;;7.53;1.48;;;8.00;99.90;;;;;;5032748;28;20048;-87
2022/05/30 01:59:02;;;;;;;5.03;1.25;;;7.20;99.90;;;;;;5031473;28;20033;-86
2022/05/30 02:01:28;;;;;;;5.13;1.20;;;7.90;99.90;;;;;;5049574;28;20052;-87
2022/05/30 02:03:55;;;;;;;5.78;1.20;;;7.00;99.90;;;;;;5031162;28;20044;-87
2022/05/30 02:06:24;;;;;;;5.00;1.02;;;7.00;99.90;;;;;;5031959;28;20048;-86
2022/05/30 02:08:50;;;;;;;4.82;1.40;;;7.20;99.90;;;;;;5032852;28;20079;-86
2022/05/30 02:11:18;;;;;;;4.50;1.20;;;7.50;99.90;;;;;;5047582;28;20048;-86
2022/05/30 02:13:44;;;;;;;4.32;1.00;;;6.60;99.90;;;;;;5032660;28;20080;-86
2022/05/30 02:18:57;;;;;;;4.32;1.55;;;6.40;99.90;;;;;;5047507;28;20395;-86
2022/05/30 02:21:22;;;;;;;5.28;1.27;;;6.40;99.90;;;;;;5032216;28;20471;-86
2022/05/30 02:23:48;;;;;;;4.18;0.93;;;6.40;99.90;;;;;;5032033;28;20048;-86
2022/05/30 02:26:14;;;;;;;6.53;1.40;;;7.10;99.90;;;;;;5031810;28;20075;-86
2022/05/30 02:28:39;;;;;;;5.22;1.45;;;6.20;99.90;;;;;;5032733;28;20426;-86
2022/05/30 02:31:05;;;;;;;4.85;1.15;;;6.20;99.90;;;;;;5031687;28;20555;-86
2022/05/30 02:38:59;;;;;;;3.75;1.30;;;6.30;99.90;;;;;;5048675;28;20458;-86
2022/05/30 02:41:25;;;;;;;5.70;1.40;;;6.10;99.90;;;;;;5030996;28;20036;-85
2022/05/30 02:43:51;;;;;;;4.75;1.10;;;6.40;99.90;;;;;;5049295;28;20040;-85
2022/05/30 02:46:17;;;;;;;2.38;0.77;;;5.90;99.90;;;;;;5047203;28;20087;-85
2022/05/30 02:48:43;;;;;;;2.50;0.63;;;6.00;99.90;;;;;;5031827;28;20040;-85
2022/05/30 02:51:09;;;;;;;4.40;1.13;;;6.60;99.90;;;;;;5031871;28;20114;-85
2022/05/30 02:53:35;;;;;;;4.32;1.35;;;5.90;99.90;;;;;;5030831;28;20088;-86
2022/05/30 02:56:02;;;;;;;3.50;1.55;;;6.30;99.90;;;;;;5032207;28;20135;-85
2022/05/30 02:58:27;;;;;;;3.65;1.20;;;5.80;99.90;;;;;;5032243;28;20044;-85
2022/05/30 03:00:53;;;;;;;8.93;1.70;;;5.80;99.90;;;;;;5032032;28;20052;-86
2022/05/30 03:03:19;;;;;;;7.68;2.20;;;6.10;99.90;;;;;;5049023;28;20589;-85
2022/05/30 03:05:45;;;;;;;5.65;1.90;;;6.70;99.90;;;;;;5035698;28;20036;-86
2022/05/30 03:08:11;;;;;;;5.30;1.75;;;6.10;99.90;;;;;;5034774;28;20048;-86
2022/05/30 03:10:37;;;;;;;2.92;1.40;;;6.70;99.90;;;;;;5052087;28;20037;-86
2022/05/30 03:13:05;;;;;;;4.75;1.15;;;6.30;99.90;;;;;;5035093;28;20044;-85
2022/05/30 03:15:31;;;;;;;10.80;1.40;;;6.30;99.90;;;;;;5034548;28;20484;-86
2022/05/30 03:17:56;;;;;;;3.95;1.55;;;6.50;99.90;;;;;;5051303;28;20051;-85
2022/05/30 03:20:22;;;;;;;5.35;1.60;;;6.60;99.90;;;;;;5035705;28;20536;-85
2022/05/30 03:22:48;;;;;;;4.43;1.55;;;7.50;99.90;;;;;;5034663;28;20538;-85
2022/05/30 03:25:15;;;;;;;8.85;1.58;;;7.30;99.90;;;;;;5035692;28;20076;-86
2022/05/30 03:27:41;;;;;;;4.70;1.50;;;6.90;99.90;;;;;;5035172;28;20421;-85
2022/05/30 03:30:08;;;;;;;5.82;1.58;;;7.00;99.90;;;;;;5034273;28;20072;-85
2022/05/30 03:32:34;;;;;;;6.70;1.50;;;7.10;99.90;;;;;;5035303;28;20048;-85
2022/05/30 03:35:00;;;;;;;5.13;1.23;;;7.40;99.90;;;;;;5034088;28;20049;-86
2022/05/30 03:37:27;;;;;;;12.02;2.00;;;7.40;99.90;;;;;;5034576;28;20048;-86
2022/05/30 03:39:53;;;;;;;6.70;1.65;;;7.40;99.90;;;;;;5051952;28;20040;-86
2022/05/30 03:42:18;;;;;;;8.25;1.77;;;8.10;99.90;;;;;;5050904;28;20462;-87
2022/05/30 03:44:45;;;;;;;11.75;2.05;;;7.80;99.90;;;;;;5035447;28;20083;-88
2022/05/30 03:47:11;;;;;;;10.13;1.65;;;8.10;99.90;;;;;;5035351;28;20051;-88
2022/05/30 03:49:38;;;;;;;11.55;1.73;;;8.10;99.90;;;;;;5034767;28;20048;-88
2022/05/30 03:52:04;;;;;;;7.40;1.70;;;8.00;99.90;;;;;;5034940;28;20036;-87
2022/05/30 03:54:31;;;;;;;10.35;1.98;;;7.70;99.90;;;;;;5035103;28;20083;-87
2022/05/30 03:56:56;;;;;;;10.52;2.08;;;7.70;99.90;;;;;;5051001;28;20483;-87
2022/05/30 03:59:22;;;;;;;8.43;1.88;;;8.00;99.90;;;;;;5034426;28;20166;-87
2022/05/30 04:01:48;;;;;;;12.07;3.25;;;8.40;99.90;;;;;;5051462;28;20044;-86
2022/05/30 04:04:14;;;;;;;9.55;2.00;;;8.20;99.90;;;;;;5033824;28;20041;-86
2022/05/30 04:06:41;;;;;;;10.70;1.95;;;7.70;99.90;;;;;;5053873;28;20494;-86
2022/05/30 04:09:07;;;;;;;9.40;1.90;;;8.30;99.90;;;;;;5070054;28;20036;-86
2022/05/30 04:11:33;;;;;;;10.27;1.98;;;7.80;99.90;;;;;;5055260;28;20044;-86
2022/05/30 04:13:59;;;;;;;5.88;1.90;;;7.80;99.90;;;;;;5054369;28;20135;-86
2022/05/30 04:16:25;;;;;;;8.13;2.22;;;8.00;99.90;;;;;;5069158;28;20154;-86
2022/05/30 04:18:50;;;;;;;8.70;2.30;;;7.90;99.90;;;;;;5069880;28;20040;-86
2022/05/30 04:21:16;;;;;;;6.15;2.00;;;7.90;99.90;;;;;;5069944;28;20048;-86
2022/05/30 04:23:43;;;;;;;14.32;2.53;;;8.20;99.90;;;;;;5054165;28;20040;-85
2022/05/30 04:26:12;;;;;;;8.18;2.28;;;8.00;99.90;;;;;;5070172;28;20059;-85
2022/05/30 04:28:38;;;;;;;7.78;2.10;;;7.90;99.90;;;;;;5054543;28;20067;-85
2022/05/30 04:31:06;;;;;;;13.45;2.40;;;7.90;99.90;;;;;;5054132;28;20054;-85
2022/05/30 04:33:33;;;;;;;9.45;2.35;;;7.90;99.90;;;;;;5053133;28;20047;-85
2022/05/30 04:36:00;;;;;;;8.27;2.00;;;8.00;99.90;;;;;;5054254;28;20613;-86
2022/05/30 04:38:26;;;;;;;8.65;2.10;;;8.20;99.90;;;;;;5053298;28;20047;-86
2022/05/30 04:40:51;;;;;;;6.25;2.15;;;8.60;99.90;;;;;;5070539;28;20048;-86
2022/05/30 04:43:17;;;;;;;6.28;2.10;;;8.40;99.90;;;;;;5037301;28;20048;-86
2022/05/30 04:45:43;;;;;;;7.43;2.20;;;8.80;99.90;;;;;;5033213;28;20040;-85
2022/05/30 04:48:08;;;;;;;7.25;1.90;;;8.80;99.90;;;;;;5032743;28;20586;-86
2022/05/30 04:50:34;;;;;;;11.55;2.30;;;8.30;99.90;;;;;;5033731;28;20048;-86
2022/05/30 04:53:00;;;;;;;5.50;1.45;;;8.30;99.90;;;;;;5049647;28;20060;-86
2022/05/30 04:55:25;;;;;;;5.32;1.48;;;8.40;99.90;;;;;;5033646;28;20427;-87
2022/05/30 04:57:52;;;;;;;7.00;1.50;;;8.50;99.90;;;;;;5050513;28;20130;-87
2022/05/30 05:00:21;;;;;;;7.53;1.35;;;8.80;99.90;;;;;;5049560;28;20078;-87
2022/05/30 05:02:50;;;;;;;5.75;1.27;;;8.70;99.90;;;;;;5049594;28;20044;-85
2022/05/30 05:05:16;;;;;;;7.68;1.33;;;8.70;99.90;;;;;;5034983;28;20048;-86
2022/05/30 05:07:49;;;;;;;8.35;2.15;;;8.70;99.90;;;;;;5032926;28;20190;-87
2022/05/30 05:10:40;;;;;;;8.32;1.38;;;8.80;99.90;;;;;;5034025;28;20045;-86
2022/05/30 05:13:05;;;;;;;6.85;1.40;;;9.10;99.90;;;;;;5048870;28;20052;-87
2022/05/30 05:15:31;;;;;;;7.85;1.88;;;8.90;99.90;;;;;;5032961;28;20037;-85
2022/05/30 05:17:57;;;;;;;6.15;1.90;;;9.60;99.90;;;;;;5049790;28;20186;-86
2022/05/30 05:20:23;;;;;;;4.72;1.80;;;9.50;99.90;;;;;;5032401;28;20044;-86
2022/05/30 05:22:50;;;;;;;8.25;1.70;;;9.00;99.90;;;;;;5033573;28;20151;-85
2022/05/30 05:25:16;;;;;;;6.40;1.70;;;9.10;99.90;;;;;;5051696;28;20044;-86
2022/05/30 05:27:42;;;;;;;7.63;1.80;;;9.10;99.90;;;;;;5052069;28;20515;-86
2022/05/30 05:30:10;;;;;;;9.05;1.90;;;9.10;99.90;;;;;;5048244;28;20043;-86
2022/05/30 05:32:36;;;;;;;8.32;2.00;;;9.20;99.90;;;;;;5052269;28;20047;-86
2022/05/30 05:35:02;;;;;;;8.10;2.17;;;9.30;99.90;;;;;;5050358;28;20040;-86
2022/05/30 05:37:28;;;;;;;7.07;2.25;;;9.50;99.90;;;;;;5059847;28;20387;-87
2022/05/30 05:39:54;;;;;;;6.88;1.88;;;9.50;99.90;;;;;;5030712;28;20048;-86
2022/05/30 05:42:20;;;;;;;7.82;1.60;;;9.60;99.90;;;;;;5030336;28;20075;-86
2022/05/30 05:44:46;;;;;;;6.63;1.73;;;9.60;99.90;;;;;;5030737;28;20052;-86
2022/05/30 05:47:11;;;;;;;7.05;1.52;;;9.70;99.90;;;;;;5048153;28;20044;-88
2022/05/30 05:49:37;;;;;;;7.32;1.30;;;9.70;99.90;;;;;;5045481;28;20391;-87
2022/05/30 05:52:03;;;;;;;10.30;1.50;;;9.80;99.90;;;;;;5078130;28;20090;-87
2022/05/30 05:54:31;;;;;;;5.30;1.40;;;9.90;99.90;;;;;;5059741;28;20048;-86
2022/05/30 05:56:57;;;;;;;16.42;2.08;;;9.90;99.90;;;;;;5082129;28;20101;-87
2022/05/30 05:59:23;;;;;;;7.63;1.50;;;10.10;99.90;;;;;;5064534;28;20044;-87
2022/05/30 06:01:49;;;;;;;5.00;1.40;;;10.10;99.90;;;;;;5071022;28;20032;-84
2022/05/30 06:04:14;;;;;;;6.40;1.27;;;10.10;99.90;;;;;;5062159;28;20134;-88
2022/05/30 06:06:40;;;;;;;5.32;1.70;;;10.20;99.90;;;;;;5066818;28;20148;-85
2022/05/30 06:09:07;;;;;;;5.07;1.27;;;10.40;99.90;;;;;;5085421;28;20094;-85
2022/05/30 06:11:33;;;;;;;5.07;1.33;;;10.70;99.90;;;;;;5069184;28;20139;-87
2022/05/30 06:13:59;;;;;;;4.68;1.20;;;10.50;99.90;;;;;;5069304;28;20547;-87
2022/05/30 06:16:29;;;;;;;6.75;1.60;;;10.70;99.90;;;;;;5068422;28;20052;-87
2022/05/30 06:18:57;;;;;;;4.15;1.00;;;10.80;99.90;;;;;;5067816;28;20135;-86
2022/05/30 06:21:25;;;;;;;3.13;1.17;;;10.90;99.90;;;;;;5068813;28;20506;-86
2022/05/30 06:23:52;;;;;;;3.72;0.93;;;11.00;99.90;;;;;;5068720;28;20059;-86
2022/05/30 06:26:18;;;;;;;7.70;1.40;;;11.10;99.90;;;;;;5084863;28;21057;-86
2022/05/30 06:28:44;;;;;;;3.80;1.05;;;11.20;99.90;;;;;;5068679;28;20036;-86
2022/05/30 06:31:16;;;;;;;11.68;1.27;;;11.30;99.90;;;;;;5067742;28;20044;-87
2022/05/30 06:33:42;;;;;;;5.53;1.00;;;11.30;99.90;;;;;;5067720;28;20040;-87
2022/05/30 06:36:10;;;;;;;5.47;0.88;;;11.40;99.90;;;;;;5068290;28;20055;-86
2022/05/30 06:38:37;;;;;;;3.05;0.85;;;11.50;99.90;;;;;;5077848;28;20452;-87
2022/05/30 06:41:11;;;;;;;5.75;1.13;;;11.40;99.90;;;;;;5072453;28;20047;-86
2022/05/30 06:43:37;;;;;;;3.28;0.88;;;11.40;99.90;;;;;;5089155;28;20105;-87
2022/05/30 06:46:03;;;;;;;4.63;0.68;;;11.50;99.90;;;;;;5071861;28;20090;-85
2022/05/30 06:48:29;;;;;;;5.80;0.80;;;11.50;99.90;;;;;;5071547;28;20076;-87
2022/05/30 06:50:54;;;;;;;3.35;0.55;;;11.30;99.90;;;;;;5074277;28;20090;-86
2022/05/30 06:53:20;;;;;;;9.00;0.65;;;11.30;99.90;;;;;;5070897;28;20184;-86
2022/05/30 06:55:49;;;;;;;2.63;0.30;;;11.20;99.90;;;;;;5055307;28;20048;-86
2022/05/30 06:58:16;;;;;;;4.63;0.50;;;11.10;99.90;;;;;;5034125;28;20048;-86
2022/05/30 07:00:44;;;;;;;4.05;0.60;;;11.00;99.90;;;;;;5050672;28;20186;-87
2022/05/30 07:03:12;;;;;;;2.92;0.43;;;11.00;99.90;;;;;;5033186;28;20434;-86
2022/05/30 07:05:39;;;;;;;5.05;0.60;;;11.00;99.90;;;;;;5050706;28;20519;-87
2022/05/30 07:08:05;;;;;;;4.22;0.80;;;11.10;99.90;;;;;;5033332;28;20124;-86
2022/05/30 07:10:31;;;;;;;2.67;0.50;;;11.20;99.90;;;;;;5052864;28;20040;-86
2022/05/30 07:12:58;;;;;;;2.13;0.45;;;11.30;99.90;;;;;;5050515;28;20455;-86
2022/05/30 07:15:26;;;;;;;3.40;0.68;;;11.40;99.90;;;;;;5033565;28;20568;-86
2022/05/30 07:17:52;;;;;;;4.30;0.80;;;11.60;99.90;;;;;;5033153;28;20048;-87
2022/05/30 07:20:18;;;;;;;6.22;1.15;;;11.40;99.90;;;;;;5052417;28;20446;-86
2022/05/30 07:22:44;;;;;;;1.73;0.50;;;11.40;99.90;;;;;;5034842;28;20060;-87
2022/05/30 07:25:10;;;;;;;1.95;0.90;;;11.50;99.90;;;;;;5050924;28;20037;-87
2022/05/30 07:27:36;;;;;;;3.40;0.60;;;11.50;99.90;;;;;;5050113;28;20110;-87
2022/05/30 07:30:02;;;;;;;3.60;0.65;;;11.60;99.90;;;;;;5033789;28;20044;-87
2022/05/30 07:32:29;;;;;;;3.13;0.60;;;11.60;99.90;;;;;;5046240;28;20495;-86
2022/05/30 07:34:55;;;;;;;4.43;0.52;;;11.60;99.90;;;;;;5032308;28;20052;-86
2022/05/30 07:37:21;;;;;;;4.05;0.50;;;11.90;99.90;;;;;;5049992;28;20503;-87
2022/05/30 07:39:47;;;;;;;7.40;0.50;;;12.10;99.90;;;;;;5034207;28;20139;-87
2022/05/30 07:42:13;;;;;;;2.78;0.40;;;12.10;99.90;;;;;;5034321;28;20051;-86
2022/05/30 07:44:39;;;;;;;2.85;0.38;;;12.10;99.90;;;;;;5033892;28;20041;-86
2022/05/30 07:47:06;;;;;;;1.70;0.35;;;12.00;99.90;;;;;;5032819;28;20565;-86
2022/05/30 07:49:32;;;;;;;3.75;0.70;;;11.90;99.90;;;;;;5033894;28;20101;-86
2022/05/30 07:51:58;;;;;;;2.47;0.55;;;11.90;99.90;;;;;;5050447;28;20373;-86
2022/05/30 07:54:24;;;;;;;3.17;0.50;;;11.90;99.90;;;;;;4995088;28;1105029;-86
2022/05/30 07:56:50;;;;;;;3.42;0.45;;;12.00;99.90;;;;;;5034171;28;20052;-86
2022/05/30 07:59:16;;;;;;;1.45;0.40;;;12.00;99.90;;;;;;5033673;28;20484;-85
2022/05/30 08:01:42;;;;;;;2.28;0.50;;;12.20;99.90;;;;;;5034744;28;20433;-85
2022/05/30 08:04:12;;;;;;;3.33;0.50;;;12.30;99.90;;;;;;5032858;28;20511;-85
2022/05/30 08:06:39;;;;;;;5.63;0.50;;;12.50;99.90;;;;;;5034633;28;20466;-86
2022/05/30 08:09:05;;;;;;;3.75;0.85;;;12.70;99.90;;;;;;5033449;28;20080;-86
2022/05/30 08:11:31;;;;;;;1.65;0.20;;;13.00;99.90;;;;;;5034601;28;20078;-85
2022/05/30 08:13:57;;;;;;;2.78;0.28;;;13.10;99.90;;;;;;5051052;28;20102;-85
2022/05/30 08:16:26;;;;;;;5.47;0.50;;;13.30;99.90;;;;;;5033671;28;20147;-85
2022/05/30 08:18:52;;;;;;;1.85;0.50;;;13.70;99.90;;;;;;5032960;28;20052;-85
2022/05/30 08:21:19;;;;;;;2.85;0.77;;;14.00;99.90;;;;;;5050092;28;20094;-85
2022/05/30 08:23:45;;;;;;;4.38;0.73;;;14.30;99.90;;;;;;5049929;28;20107;-84
2022/05/30 08:26:13;;;;;;;2.33;0.45;;;14.50;99.90;;;;;;5033346;28;20076;-85
2022/05/30 08:28:40;;;;;;;2.22;0.55;;;14.30;99.90;;;;;;5033990;28;20127;-85
2022/05/30 08:31:06;;;;;;;4.05;0.50;;;14.10;99.90;;;;;;5049232;28;20419;-85
2022/05/30 08:33:31;;;;;;;2.58;0.45;;;13.80;99.90;;;;;;5049784;28;20052;-85
2022/05/30 08:36:00;;;;;;;3.08;0.40;;;13.50;99.90;;;;;;5033903;28;20079;-85
2022/05/30 08:38:25;;;;;;;5.55;0.63;;;13.20;99.90;;;;;;5032520;28;20033;-85
2022/05/30 08:43:39;;;;;;;4.35;0.50;;;12.90;99.90;;;;;;5049994;28;20500;-85
2022/05/30 08:46:36;;;;;;;2.35;0.50;;;12.90;99.90;;;;;;5032445;28;20080;-85
2022/05/30 08:49:13;;;;;;;3.40;0.57;;;13.20;99.90;;;;;;5032903;28;20045;-85
2022/05/30 08:51:46;;;;;;;5.57;0.40;;;13.70;99.90;;;;;;5050101;28;20543;-84
2022/05/30 08:54:30;;;;;;;1.20;0.25;;;13.80;99.90;;;;;;5048500;28;20059;-84
2022/05/30 08:56:58;;;;;;;2.10;0.35;;;13.80;99.90;;;;;;5033194;28;20369;-84
2022/05/30 08:59:36;;;;;;;1.20;0.30;;;13.50;99.90;;;;;;5049700;28;20152;-84
2022/05/30 09:02:11;;;;;;;4.75;0.45;;;13.40;99.90;;;;;;5049232;28;20132;-84
2022/05/30 09:04:51;;;;;;;2.72;0.30;;;13.30;99.90;;;;;;5032571;28;20097;-84
2022/05/30 09:07:22;;;;;;;1.42;0.30;;;13.20;99.90;;;;;;5031849;28;20040;-84
2022/05/30 09:09:58;;;;;;;0.75;0.15;;;13.20;99.90;;;;;;5054211;28;20044;-84
2022/05/30 09:12:32;;;;;;;3.38;0.52;;;13.20;99.90;;;;;;5069142;28;20587;-84
2022/05/30 09:15:06;;;;;;;1.70;0.35;;;13.30;99.90;;;;;;5065733;28;20546;-83
2022/05/30 09:17:39;;;;;;;2.15;0.38;;;13.40;99.90;;;;;;5032861;28;20499;-83
2022/05/30 09:20:06;;;;;;;;;;;13.50;99.90;;;;;;5048184;28;20059;-83
2022/05/30 09:22:33;;;;;;;2.65;0.60;;;13.50;99.90;;;;;;5049407;28;19928;-83
2022/05/30 09:27:43;;;;;;;2.00;0.45;;;13.70;99.90;;;;;;5066174;28;20068;-83
2022/05/30 09:30:12;;;;;;;1.42;0.30;;;13.60;99.90;;;;;;5048671;28;20101;-83
2022/05/30 09:33:05;;;;;;;3.67;0.50;;;13.60;99.90;;;;;;5032959;28;20053;-83
2022/05/30 09:35:33;;;;;;;2.72;0.40;;;13.60;99.90;;;;;;5049676;28;20048;-83
2022/05/30 09:38:17;;;;;;;2.50;0.38;;;13.50;99.90;;;;;;5049706;28;20110;-83
2022/05/30 09:40:47;;;;;;;2.67;0.40;;;13.40;99.90;;;;;;5049376;28;20127;-83
2022/05/30 09:43:23;;;;;;;5.50;0.50;;;13.40;99.90;;;;;;5048185;28;20028;-82
2022/05/30 09:45:49;;;;;;;2.53;0.40;;;13.40;99.90;;;;;;5049403;28;20058;-83
2022/05/30 09:48:19;;;;;;;4.75;0.52;;;13.40;99.90;;;;;;5046969;28;20052;-83
2022/05/30 09:50:49;;;;;;;6.63;0.47;;;13.60;99.90;;;;;;5049841;28;20496;-83
2022/05/30 09:53:37;;;;;;;5.47;0.60;;;13.70;99.90;;;;;;5049053;28;20107;-83
2022/05/30 09:56:03;;;;;;;2.08;0.43;;;13.90;99.90;;;;;;5048424;28;20048;-83
2022/05/30 09:58:59;;;;;;;5.82;0.68;;;14.00;99.90;;;;;;5049151;28;20396;-83
2022/05/30 10:01:27;;;;;;;1.45;0.38;;;14.20;99.90;;;;;;5032167;28;20641;-83
2022/05/30 10:03:59;;;;;;;2.78;0.38;;;14.30;99.90;;;;;;5047338;28;20474;-82
2022/05/30 10:06:27;;;;;;;1.15;0.20;;;14.30;99.90;;;;;;5048616;28;20080;-83
2022/05/30 10:09:13;;;;;;;1.63;0.20;;;14.40;99.90;;;;;;5048860;28;20125;-82
2022/05/30 10:11:40;;;;;;;0.75;0.20;;;14.50;99.90;;;;;;5032159;28;20102;-83
2022/05/30 10:14:20;;;;;;;1.45;0.20;;;14.60;99.90;;;;;;5067882;28;20446;-83
2022/05/30 10:16:46;;;;;;;1.92;0.20;;;14.60;99.90;;;;;;5036017;28;20055;-83
2022/05/30 10:19:24;;;;;;;1.88;0.30;;;14.70;99.90;;;;;;5051311;28;20045;-82
2022/05/30 10:28:16;;;;;;;1.23;0.20;;;15.00;99.90;;;;;;5052287;28;20163;-83
2022/05/30 10:30:56;;;;;;;2.97;0.13;;;15.20;99.90;;;;;;5052453;28;20102;-82
2022/05/30 10:33:49;;;;;;;0.30;0.00;;;15.40;99.90;;;;;;5051308;28;20830;-83
2022/05/30 10:36:32;;;;;;;0.95;0.20;;;15.40;99.90;;;;;;5052246;28;20413;-82
2022/05/30 10:39:16;;;;;;;2.28;0.55;;;15.40;99.90;;;;;;5052963;28;20458;-82
2022/05/30 10:41:50;;;;;;;2.55;0.20;;;15.40;99.90;;;;;;5052697;28;20127;-83
2022/05/30 10:44:23;;;;;;;1.23;0.30;;;15.40;99.90;;;;;;5051939;28;20434;-82
2022/05/30 10:47:02;;;;;;;1.52;0.20;;;15.40;99.90;;;;;;5053369;28;20052;-83
2022/05/30 10:49:34;;;;;;;1.38;0.20;;;15.30;99.90;;;;;;5051222;28;20491;-82
2022/05/30 10:52:06;;;;;;;1.70;0.20;;;15.10;99.90;;;;;;5035920;28;20129;-82
2022/05/30 10:54:39;;;;;;;2.50;0.35;;;15.00;99.90;;;;;;5052614;28;20052;-82
2022/05/30 10:57:13;;;;;;;4.32;0.47;;;14.80;99.90;;;;;;5051657;28;20083;-82
2022/05/30 10:59:49;;;;;;;4.15;1.05;;;14.60;99.90;;;;;;5052019;28;20048;-82
2022/05/30 11:02:29;;;;;;;4.55;0.60;;;14.40;99.90;;;;;;5052377;28;20137;-82
2022/05/30 11:05:08;;;;;;;0.82;0.40;;;14.20;99.90;;;;;;5051524;28;20048;-82
2022/05/30 11:07:37;;;;;;;4.68;0.50;;;14.10;99.90;;;;;;5052376;28;20434;-82
2022/05/30 11:10:32;;;;;;;4.32;0.30;;;14.00;99.90;;;;;;5051673;28;20415;-82
2022/05/30 11:13:21;;;;;;;1.50;0.30;;;14.00;99.90;;;;;;5052189;28;20157;-82
2022/05/30 11:15:57;;;;;;;1.65;0.30;;;14.00;99.90;;;;;;5069031;28;20611;-82
2022/05/30 11:18:57;;;;;;;2.50;0.45;;;14.00;99.90;;;;;;5034427;28;20118;-83
2022/05/30 11:21:38;;;;;;;2.10;0.25;;;14.10;99.90;;;;;;5034886;28;20044;-83
2022/05/30 11:24:05;;;;;;;1.20;0.28;;;14.10;99.90;;;;;;5067550;28;20044;-82
2022/05/30 11:26:58;;;;;;;1.73;0.28;;;14.20;99.90;;;;;;5068589;28;20495;-83
2022/05/30 11:29:52;;;;;;;2.10;0.30;;;14.20;99.90;;;;;;5068119;28;20189;-83
2022/05/30 11:32:42;;;;;;;4.05;0.43;;;14.30;99.90;;;;;;5067852;28;20581;-83
2022/05/30 11:35:31;;;;;;;2.28;0.50;;;14.40;99.90;;;;;;5033677;28;20455;-83
2022/05/30 11:38:21;;;;;;;2.42;0.50;;;14.40;99.90;;;;;;5035060;28;20040;-83
2022/05/30 11:41:06;;;;;;;3.95;0.43;;;14.50;99.90;;;;;;5035065;28;20059;-82
2022/05/30 11:43:57;;;;;;;2.00;0.40;;;14.50;99.90;;;;;;5035002;28;20044;-82
2022/05/30 11:46:41;;;;;;;2.08;0.40;;;14.50;99.90;;;;;;5050916;28;20074;-82
2022/05/30 11:49:23;;;;;;;2.78;0.52;;;14.60;99.90;;;;;;5049681;28;20129;-82
2022/05/30 11:52:04;;;;;;;3.53;0.45;;;14.60;99.90;;;;;;5034849;28;20058;-82
2022/05/30 11:54:43;;;;;;;3.08;0.30;;;14.60;99.90;;;;;;5068968;28;20419;-82
2022/05/30 11:57:33;;;;;;;1.77;0.40;;;14.70;99.90;;;;;;5034034;28;20405;-82
2022/05/30 12:00:11;;;;;;;3.10;0.30;;;14.60;99.90;;;;;;5051760;28;20048;-82
2022/05/30 12:02:57;;;;;;;2.75;0.40;;;14.60;99.90;;;;;;5050523;28;20131;-82
2022/05/30 12:05:28;;;;;;;3.03;0.57;;;14.60;99.90;;;;;;5034144;28;20048;-82
2022/05/30 12:08:13;;;;;;;1.33;0.40;;;14.60;99.90;;;;;;5051207;28;20045;-82
2022/05/30 12:11:02;;;;;;;3.28;0.60;;;14.50;99.90;;;;;;5033988;28;20049;-82
2022/05/30 12:13:54;;;;;;;0.70;0.30;;;14.40;99.90;;;;;;5051073;28;20055;-82
2022/05/30 12:16:40;;;;;;;2.95;0.40;;;14.30;99.90;;;;;;5032986;28;20048;-82
2022/05/30 12:24:51;;;;;;;4.32;0.50;;;14.20;99.90;;;;;;5049929;28;20071;-82
2022/05/30 12:27:28;;;;;;;2.30;0.60;;;14.10;99.90;;;;;;5050234;28;20056;-82
2022/05/30 12:29:55;;;;;;;4.28;0.47;;;14.00;99.90;;;;;;5067859;28;20488;-82
2022/05/30 12:32:21;;;;;;;1.30;0.32;;;13.90;99.90;;;;;;5050150;28;20056;-82
2022/05/30 12:35:16;;;;;;;2.65;0.43;;;13.70;99.90;;;;;;5048846;28;20044;-82
2022/05/30 12:37:47;;;;;;;2.45;0.70;;;13.60;99.90;;;;;;5049733;28;20044;-82
2022/05/30 12:40:25;;;;;;;2.20;0.50;;;13.40;99.90;;;;;;5032826;28;20036;-83
2022/05/30 12:43:02;;;;;;;2.83;0.50;;;13.20;99.90;;;;;;5033265;28;20124;-83
2022/05/30 12:45:39;;;;;;;2.50;0.60;;;13.20;99.90;;;;;;5033531;28;20041;-83
2022/05/30 12:48:19;;;;;;;3.05;0.73;;;13.10;99.90;;;;;;5032356;28;20797;-84
2022/05/30 12:50:51;;;;;;;5.13;0.80;;;13.10;99.90;;;;;;5033963;28;20052;-84
2022/05/30 12:53:20;;;;;;;2.63;0.68;;;13.10;99.90;;;;;;5048769;28;20186;-84
2022/05/30 12:55:49;;;;;;;2.08;0.50;;;13.20;99.90;;;;;;5035191;28;20119;-84
2022/05/30 12:58:22;;;;;;;1.17;0.40;;;13.20;99.90;;;;;;5032177;28;20048;-84
2022/05/30 13:00:55;;;;;;;3.20;0.55;;;13.30;99.90;;;;;;5050211;28;20032;-85
2022/05/30 13:03:30;;;;;;;2.15;0.60;;;13.30;99.90;;;;;;5048501;28;20084;-84
2022/05/30 13:06:06;;;;;;;3.13;0.70;;;13.40;99.90;;;;;;5049453;28;20045;-84
2022/05/30 13:08:55;;;;;;;1.85;0.43;;;13.50;99.90;;;;;;5050254;28;20487;-85
2022/05/30 13:11:32;;;;;;;4.38;0.43;;;13.50;99.90;;;;;;5049506;28;20113;-85
2022/05/30 13:14:10;;;;;;;3.13;0.40;;;13.50;99.90;;;;;;5032628;28;20086;-84
2022/05/30 13:16:42;;;;;;;2.38;0.38;;;13.50;99.90;;;;;;5049507;28;20047;-84
2022/05/30 13:19:14;;;;;;;2.35;0.30;;;13.40;99.90;;;;;;5031700;28;20141;-84
2022/05/30 13:21:43;;;;;;;2.67;0.63;;;13.40;99.90;;;;;;5050289;28;20484;-84
2022/05/30 13:24:25;;;;;;;2.47;0.35;;;13.30;99.90;;;;;;5049231;28;20079;-84
2022/05/30 13:26:51;;;;;;;2.72;0.40;;;13.20;99.90;;;;;;5049627;28;20059;-84
2022/05/30 13:29:17;;;;;;;3.10;0.52;;;13.20;99.90;;;;;;5049377;28;20044;-85
2022/05/30 13:31:49;;;;;;;1.33;0.32;;;13.30;99.90;;;;;;5050282;28;20416;-85
2022/05/30 13:34:26;;;;;;;3.97;0.52;;;13.40;99.90;;;;;;5047468;28;20044;-85